createdAt,value
2016-05-18T00:00:10.494Z,0
2016-05-18T00:01:10.543Z,0
2016-05-18T00:02:10.578Z,0
2016-05-18T00:03:10.611Z,0
2016-05-18T00:04:10.333Z,0
2016-05-18T00:05:10.680Z,0
2016-05-18T00:06:10.744Z,0
2016-05-18T00:07:10.747Z,0
2016-05-18T00:08:11.202Z,0
2016-05-18T00:09:10.815Z,0
2016-05-18T00:10:10.880Z,0
2016-05-18T00:11:10.914Z,0
2016-05-18T00:12:10.948Z,0
2016-05-18T00:13:10.966Z,0
2016-05-18T00:14:10.860Z,0
2016-05-18T00:15:11.049Z,0
2016-05-18T00:16:11.084Z,0
2016-05-18T00:17:11.134Z,0
2016-05-18T00:18:11.012Z,0
2016-05-18T00:19:11.201Z,0
2016-05-18T00:20:11.235Z,0
2016-05-18T00:21:11.284Z,0
2016-05-18T00:22:11.303Z,0
2016-05-18T00:23:11.962Z,0
2016-05-18T00:24:11.230Z,0
2016-05-18T00:25:11.421Z,0
2016-05-18T00:26:11.454Z,0
2016-05-18T00:27:11.331Z,0
2016-05-18T00:28:11.522Z,0
2016-05-18T00:29:11.572Z,0
2016-05-18T00:30:11.465Z,0
2016-05-18T00:31:11.639Z,0
2016-05-18T00:32:11.690Z,0
2016-05-18T00:33:11.708Z,0
2016-05-18T00:34:11.741Z,0
2016-05-18T00:35:11.791Z,0
2016-05-18T00:36:11.825Z,0
2016-05-18T00:37:11.858Z,0
2016-05-18T00:38:11.878Z,0
2016-05-18T00:39:11.943Z,0
2016-05-18T00:40:11.976Z,0
2016-05-18T00:41:12.027Z,0
2016-05-18T00:42:11.888Z,0
2016-05-18T00:43:11.921Z,0
2016-05-18T00:44:12.128Z,0
2016-05-18T00:45:12.162Z,0
2016-05-18T00:46:12.180Z,0
2016-05-18T00:47:12.245Z,0
2016-05-18T00:48:12.248Z,0
2016-05-18T00:49:12.312Z,0
2016-05-18T00:50:12.348Z,0
2016-05-18T00:51:12.381Z,0
2016-05-18T00:52:12.415Z,0
2016-05-18T00:53:12.168Z,0
2016-05-18T00:54:12.483Z,0
2016-05-18T00:55:12.517Z,0
2016-05-18T00:56:12.566Z,0
2016-05-18T00:57:12.600Z,0
2016-05-18T00:58:12.462Z,0
2016-05-18T00:59:12.668Z,0
2016-05-18T01:00:12.717Z,0
2016-05-18T01:01:12.752Z,0
2016-05-18T01:02:12.770Z,0
2016-05-18T01:03:12.803Z,0
2016-05-18T01:04:12.853Z,0
2016-05-18T01:05:12.731Z,0
2016-05-18T01:06:12.953Z,0
2016-05-18T01:07:12.955Z,0
2016-05-18T01:08:13.130Z,0
2016-05-18T01:09:12.883Z,0
2016-05-18T01:10:13.072Z,0
2016-05-18T01:11:13.122Z,0
2016-05-18T01:12:13.156Z,0
2016-05-18T01:13:13.300Z,0
2016-05-18T01:14:13.208Z,0
2016-05-18T01:15:13.257Z,0
2016-05-18T01:16:13.292Z,0
2016-05-18T01:17:13.201Z,0
2016-05-18T01:18:13.360Z,0
2016-05-18T01:19:13.253Z,0
2016-05-18T01:20:13.444Z,0
2016-05-18T01:21:13.477Z,0
2016-05-18T01:22:13.355Z,0
2016-05-18T01:23:14.014Z,0
2016-05-18T01:24:13.578Z,0
2016-05-18T01:25:13.629Z,0
2016-05-18T01:26:13.662Z,0
2016-05-18T01:27:13.697Z,0
2016-05-18T01:28:13.731Z,0
2016-05-18T01:29:13.764Z,0
2016-05-18T01:30:13.642Z,0
2016-05-18T01:31:13.832Z,0
2016-05-18T01:32:13.867Z,0
2016-05-18T01:33:13.759Z,0
2016-05-18T01:34:13.950Z,0
2016-05-18T01:35:13.843Z,0
2016-05-18T01:36:14.017Z,0
2016-05-18T01:37:14.083Z,0
2016-05-18T01:38:14.304Z,0
2016-05-18T01:39:14.135Z,0
2016-05-18T01:40:14.013Z,0
2016-05-18T01:41:14.203Z,0
2016-05-18T01:42:14.237Z,0
2016-05-18T01:43:14.115Z,0
2016-05-18T01:44:14.305Z,0
2016-05-18T01:45:14.370Z,0
2016-05-18T01:46:14.388Z,0
2016-05-18T01:47:14.266Z,0
2016-05-18T01:48:14.332Z,0
2016-05-18T01:49:14.349Z,0
2016-05-18T01:50:14.384Z,0
2016-05-18T01:51:14.573Z,0
2016-05-18T01:52:14.607Z,0
2016-05-18T01:53:14.751Z,0
2016-05-18T01:54:14.690Z,0
2016-05-18T01:55:14.725Z,0
2016-05-18T01:56:14.603Z,0
2016-05-18T01:57:14.793Z,0
2016-05-18T01:58:14.826Z,0
2016-05-18T01:59:14.861Z,0
2016-05-18T02:00:14.911Z,0
2016-05-18T02:01:14.944Z,0
2016-05-18T02:02:14.823Z,0
2016-05-18T02:03:14.856Z,0
2016-05-18T02:04:15.046Z,0
2016-05-18T02:05:14.939Z,0
2016-05-18T02:06:15.145Z,0
2016-05-18T02:07:15.163Z,0
2016-05-18T02:08:15.072Z,0
2016-05-18T02:09:15.247Z,0
2016-05-18T02:10:15.265Z,0
2016-05-18T02:11:15.144Z,0
2016-05-18T02:12:15.333Z,0
2016-05-18T02:13:15.226Z,0
2016-05-18T02:14:15.417Z,0
2016-05-18T02:15:15.451Z,0
2016-05-18T02:16:15.344Z,0
2016-05-18T02:17:15.534Z,0
2016-05-18T02:18:15.552Z,0
2016-05-18T02:19:15.446Z,0
2016-05-18T02:20:15.635Z,0
2016-05-18T02:21:15.513Z,0
2016-05-18T02:22:15.407Z,0
2016-05-18T02:23:15.707Z,0
2016-05-18T02:24:15.803Z,0
2016-05-18T02:25:15.540Z,0
2016-05-18T02:26:15.856Z,0
2016-05-18T02:27:15.733Z,0
2016-05-18T02:28:15.939Z,0
2016-05-18T02:29:15.972Z,0
2016-05-18T02:30:16.007Z,0
2016-05-18T02:31:16.040Z,0
2016-05-18T02:32:15.950Z,0
2016-05-18T02:33:16.108Z,0
2016-05-18T02:34:15.986Z,0
2016-05-18T02:35:16.176Z,0
2016-05-18T02:36:16.226Z,0
2016-05-18T02:37:16.260Z,0
2016-05-18T02:38:16.981Z,0
2016-05-18T02:39:16.328Z,0
2016-05-18T02:40:16.377Z,0
2016-05-18T02:41:16.411Z,0
2016-05-18T02:42:16.445Z,0
2016-05-18T02:43:16.479Z,0
2016-05-18T02:44:16.544Z,0
2016-05-18T02:45:16.249Z,0
2016-05-18T02:46:16.597Z,0
2016-05-18T02:47:16.630Z,0
2016-05-18T02:48:16.493Z,0
2016-05-18T02:49:16.698Z,0
2016-05-18T02:50:16.733Z,0
2016-05-18T02:51:16.610Z,0
2016-05-18T02:52:16.800Z,0
2016-05-18T02:53:17.350Z,0
2016-05-18T02:54:16.727Z,0
2016-05-18T02:55:16.917Z,0
2016-05-18T02:56:16.951Z,0
2016-05-18T02:57:17.001Z,0
2016-05-18T02:58:17.020Z,0
2016-05-18T02:59:17.069Z,0
2016-05-18T03:00:16.947Z,0
2016-05-18T03:01:17.137Z,0
2016-05-18T03:02:17.170Z,0
2016-05-18T03:03:17.205Z,0
2016-05-18T03:04:17.239Z,0
2016-05-18T03:05:17.320Z,0
2016-05-18T03:06:17.322Z,0
2016-05-18T03:07:17.356Z,0
2016-05-18T03:08:17.905Z,0
2016-05-18T03:09:17.439Z,0
2016-05-18T03:10:17.458Z,0
2016-05-18T03:11:17.194Z,0
2016-05-18T03:12:17.542Z,0
2016-05-18T03:13:17.575Z,0
2016-05-18T03:14:17.452Z,0
2016-05-18T03:15:17.643Z,0
2016-05-18T03:16:17.693Z,0
2016-05-18T03:17:17.727Z,0
2016-05-18T03:18:17.760Z,0
2016-05-18T03:19:17.795Z,0
2016-05-18T03:20:17.829Z,0
2016-05-18T03:21:17.549Z,0
2016-05-18T03:22:17.912Z,0
2016-05-18T03:23:17.945Z,0
2016-05-18T03:24:18.355Z,0
2016-05-18T03:25:17.873Z,0
2016-05-18T03:26:18.048Z,0
2016-05-18T03:27:18.098Z,0
2016-05-18T03:28:18.131Z,0
2016-05-18T03:29:18.165Z,0
2016-05-18T03:30:18.059Z,0
2016-05-18T03:31:18.249Z,0
2016-05-18T03:32:18.283Z,0
2016-05-18T03:33:18.301Z,0
2016-05-18T03:34:18.350Z,0
2016-05-18T03:35:18.384Z,5
2016-05-18T03:36:18.262Z,5
2016-05-18T03:37:18.296Z,5
2016-05-18T03:38:19.143Z,5
2016-05-18T03:39:18.519Z,5
2016-05-18T03:40:18.569Z,5
2016-05-18T03:41:18.603Z,5
2016-05-18T03:42:18.638Z,5
2016-05-18T03:43:18.672Z,5
2016-05-18T03:44:18.706Z,5
2016-05-18T03:45:18.739Z,5
2016-05-18T03:46:18.789Z,5
2016-05-18T03:47:18.808Z,5
2016-05-18T03:48:18.857Z,5
2016-05-18T03:49:18.891Z,5
2016-05-18T03:50:18.925Z,5
2016-05-18T03:51:18.818Z,5
2016-05-18T03:52:19.008Z,5
2016-05-18T03:53:18.885Z,5
2016-05-18T03:54:19.061Z,5
2016-05-18T03:55:18.954Z,5
2016-05-18T03:56:19.144Z,5
2016-05-18T03:57:19.179Z,5
2016-05-18T03:58:19.071Z,5
2016-05-18T03:59:19.246Z,5
2016-05-18T04:00:19.139Z,5
2016-05-18T04:01:19.345Z,5
2016-05-18T04:02:19.364Z,5
2016-05-18T04:03:19.398Z,10
2016-05-18T04:04:19.431Z,10
2016-05-18T04:05:19.340Z,10
2016-05-18T04:06:19.531Z,10
2016-05-18T04:07:19.548Z,10
2016-05-18T04:08:19.520Z,10
2016-05-18T04:09:19.633Z,15
2016-05-18T04:10:19.666Z,10
2016-05-18T04:11:19.559Z,10
2016-05-18T04:12:19.734Z,10
2016-05-18T04:13:19.769Z,10
2016-05-18T04:14:19.833Z,15
2016-05-18T04:15:19.852Z,15
2016-05-18T04:16:19.869Z,15
2016-05-18T04:17:19.919Z,15
2016-05-18T04:18:19.797Z,15
2016-05-18T04:19:20.002Z,15
2016-05-18T04:20:20.022Z,10
2016-05-18T04:21:20.055Z,10
2016-05-18T04:22:20.089Z,10
2016-05-18T04:23:20.732Z,10
2016-05-18T04:24:20.173Z,10
2016-05-18T04:25:20.051Z,10
2016-05-18T04:26:20.240Z,10
2016-05-18T04:27:20.275Z,15
2016-05-18T04:28:20.340Z,15
2016-05-18T04:29:20.357Z,15
2016-05-18T04:30:20.235Z,20
2016-05-18T04:31:20.425Z,25
2016-05-18T04:32:20.459Z,25
2016-05-18T04:33:20.337Z,25
2016-05-18T04:34:20.543Z,20
2016-05-18T04:35:20.421Z,20
2016-05-18T04:36:20.456Z,20
2016-05-18T04:37:20.333Z,15
2016-05-18T04:38:21.164Z,10
2016-05-18T04:39:20.729Z,10
2016-05-18T04:40:20.606Z,10
2016-05-18T04:41:20.781Z,10
2016-05-18T04:42:20.830Z,10
2016-05-18T04:43:20.724Z,15
2016-05-18T04:44:20.914Z,15
2016-05-18T04:45:20.964Z,15
2016-05-18T04:46:20.966Z,20
2016-05-18T04:47:21.016Z,25
2016-05-18T04:48:21.049Z,25
2016-05-18T04:49:21.083Z,25
2016-05-18T04:50:20.961Z,25
2016-05-18T04:51:20.996Z,25
2016-05-18T04:52:21.045Z,25
2016-05-18T04:53:21.235Z,25
2016-05-18T04:54:21.269Z,25
2016-05-18T04:55:21.302Z,25
2016-05-18T04:56:21.352Z,25
2016-05-18T04:57:21.214Z,25
2016-05-18T04:58:21.405Z,30
2016-05-18T04:59:21.454Z,30
2016-05-18T05:00:21.488Z,35
2016-05-18T05:01:21.538Z,30
2016-05-18T05:02:21.556Z,30
2016-05-18T05:03:21.590Z,30
2016-05-18T05:04:21.483Z,25
2016-05-18T05:05:21.517Z,20
2016-05-18T05:06:21.567Z,20
2016-05-18T05:07:21.741Z,20
2016-05-18T05:08:21.994Z,25
2016-05-18T05:09:21.826Z,25
2016-05-18T05:10:21.733Z,35
2016-05-18T05:11:21.908Z,30
2016-05-18T05:12:21.458Z,20
2016-05-18T05:13:21.961Z,25
2016-05-18T05:14:21.994Z,30
2016-05-18T05:15:21.888Z,30
2016-05-18T05:16:21.922Z,25
2016-05-18T05:17:22.112Z,30
2016-05-18T05:18:21.990Z,30
2016-05-18T05:19:22.180Z,30
2016-05-18T05:20:22.213Z,30
2016-05-18T05:21:22.263Z,25
2016-05-18T05:22:22.297Z,25
2016-05-18T05:23:22.347Z,30
2016-05-18T05:24:22.366Z,25
2016-05-18T05:25:22.399Z,20
2016-05-18T05:26:22.465Z,25
2016-05-18T05:27:22.467Z,30
2016-05-18T05:28:22.517Z,30
2016-05-18T05:29:22.551Z,40
2016-05-18T05:30:22.428Z,40
2016-05-18T05:31:22.478Z,40
2016-05-18T05:32:22.668Z,30
2016-05-18T05:33:22.702Z,20
2016-05-18T05:34:22.736Z,25
2016-05-18T05:35:22.785Z,25
2016-05-18T05:36:22.647Z,30
2016-05-18T05:37:22.854Z,40
2016-05-18T05:38:22.887Z,45
2016-05-18T05:39:22.921Z,45
2016-05-18T05:40:22.956Z,40
2016-05-18T05:41:22.848Z,35
2016-05-18T05:42:23.023Z,30
2016-05-18T05:43:23.056Z,30
2016-05-18T05:44:23.122Z,35
2016-05-18T05:45:23.141Z,45
2016-05-18T05:46:23.174Z,45
2016-05-18T05:47:23.208Z,40
2016-05-18T05:48:23.258Z,35
2016-05-18T05:49:23.291Z,30
2016-05-18T05:50:23.325Z,25
2016-05-18T05:51:23.219Z,25
2016-05-18T05:52:23.393Z,20
2016-05-18T05:53:23.287Z,25
2016-05-18T05:54:23.352Z,25
2016-05-18T05:55:23.511Z,25
2016-05-18T05:56:23.546Z,25
2016-05-18T05:57:23.580Z,25
2016-05-18T05:58:23.472Z,25
2016-05-18T05:59:23.506Z,25
2016-05-18T06:00:23.681Z,25
2016-05-18T06:01:23.746Z,25
2016-05-18T06:02:23.765Z,25
2016-05-18T06:03:23.814Z,25
2016-05-18T06:04:23.832Z,25
2016-05-18T06:05:23.882Z,25
2016-05-18T06:06:23.915Z,30
2016-05-18T06:07:23.637Z,30
2016-05-18T06:08:23.953Z,30
2016-05-18T06:09:24.033Z,30
2016-05-18T06:10:24.051Z,35
2016-05-18T06:11:24.101Z,40
2016-05-18T06:12:24.134Z,35
2016-05-18T06:13:24.184Z,35
2016-05-18T06:14:24.233Z,30
2016-05-18T06:15:24.236Z,25
2016-05-18T06:16:24.287Z,25
2016-05-18T06:17:24.320Z,25
2016-05-18T06:18:24.354Z,25
2016-05-18T06:19:24.403Z,25
2016-05-18T06:20:24.422Z,25
2016-05-18T06:21:24.472Z,25
2016-05-18T06:22:24.505Z,25
2016-05-18T06:23:25.024Z,25
2016-05-18T06:24:24.605Z,25
2016-05-18T06:25:24.623Z,25
2016-05-18T06:26:24.657Z,25
2016-05-18T06:27:24.707Z,25
2016-05-18T06:28:24.724Z,25
2016-05-18T06:29:24.774Z,25
2016-05-18T06:30:24.808Z,25
2016-05-18T06:31:24.842Z,25
2016-05-18T06:32:24.860Z,25
2016-05-18T06:33:24.754Z,25
2016-05-18T06:34:24.944Z,30
2016-05-18T06:35:24.979Z,30
2016-05-18T06:36:25.059Z,30
2016-05-18T06:37:25.046Z,30
2016-05-18T06:38:24.658Z,30
2016-05-18T06:39:25.129Z,30
2016-05-18T06:40:25.179Z,30
2016-05-18T06:41:25.198Z,25
2016-05-18T06:42:25.247Z,30
2016-05-18T06:43:25.280Z,30
2016-05-18T06:44:25.314Z,30
2016-05-18T06:45:25.348Z,30
2016-05-18T06:46:25.383Z,30
2016-05-18T06:47:25.275Z,30
2016-05-18T06:48:25.467Z,30
2016-05-18T06:49:25.484Z,30
2016-05-18T06:50:25.534Z,30
2016-05-18T06:51:25.569Z,30
2016-05-18T06:52:25.821Z,30
2016-05-18T06:53:26.089Z,30
2016-05-18T06:54:26.483Z,30
2016-05-18T06:55:25.750Z,30
2016-05-18T06:56:25.597Z,30
2016-05-18T06:57:26.616Z,30
2016-05-18T06:58:26.524Z,30
2016-05-18T06:59:25.871Z,30
2016-05-18T07:00:25.889Z,30
2016-05-18T07:01:25.938Z,30
2016-05-18T07:02:25.988Z,30
2016-05-18T07:03:26.007Z,30
2016-05-18T07:04:25.743Z,30
2016-05-18T07:05:26.090Z,30
2016-05-18T07:06:25.968Z,30
2016-05-18T07:07:26.157Z,30
2016-05-18T07:08:26.223Z,30
2016-05-18T07:09:26.242Z,30
2016-05-18T07:10:26.135Z,30
2016-05-18T07:11:26.309Z,30
2016-05-18T07:12:26.343Z,30
2016-05-18T07:13:26.377Z,30
2016-05-18T07:14:26.412Z,30
2016-05-18T07:15:26.476Z,30
2016-05-18T07:16:26.511Z,30
2016-05-18T07:17:26.544Z,30
2016-05-18T07:18:26.562Z,35
2016-05-18T07:19:26.597Z,35
2016-05-18T07:20:26.630Z,35
2016-05-18T07:21:26.680Z,35
2016-05-18T07:22:26.714Z,35
2016-05-18T07:23:27.044Z,35
2016-05-18T07:24:26.782Z,35
2016-05-18T07:25:26.831Z,35
2016-05-18T07:26:26.709Z,35
2016-05-18T07:27:26.899Z,35
2016-05-18T07:28:27.136Z,35
2016-05-18T07:29:26.983Z,35
2016-05-18T07:30:27.002Z,35
2016-05-18T07:31:27.052Z,35
2016-05-18T07:32:27.100Z,35
2016-05-18T07:33:27.134Z,35
2016-05-18T07:34:27.168Z,35
2016-05-18T07:35:27.187Z,35
2016-05-18T07:36:27.221Z,35
2016-05-18T07:37:27.270Z,35
2016-05-18T07:38:28.085Z,35
2016-05-18T07:39:27.197Z,35
2016-05-18T07:40:27.497Z,35
2016-05-18T07:41:27.421Z,35
2016-05-18T07:42:27.456Z,35
2016-05-18T07:43:27.333Z,35
2016-05-18T07:44:27.492Z,35
2016-05-18T07:45:27.573Z,35
2016-05-18T07:46:27.592Z,35
2016-05-18T07:47:27.734Z,35
2016-05-18T07:48:27.675Z,35
2016-05-18T07:49:27.567Z,40
2016-05-18T07:50:27.586Z,40
2016-05-18T07:51:27.620Z,40
2016-05-18T07:52:27.685Z,40
2016-05-18T07:53:27.735Z,40
2016-05-18T07:54:27.909Z,40
2016-05-18T07:55:27.787Z,40
2016-05-18T07:56:27.977Z,40
2016-05-18T07:57:27.855Z,40
2016-05-18T07:58:28.044Z,40
2016-05-18T07:59:28.080Z,40
2016-05-18T08:00:28.130Z,40
2016-05-18T08:01:28.147Z,40
2016-05-18T08:02:28.181Z,40
2016-05-18T08:03:27.918Z,40
2016-05-18T08:04:28.265Z,40
2016-05-18T08:05:28.299Z,40
2016-05-18T08:06:28.332Z,40
2016-05-18T08:07:28.226Z,40
2016-05-18T08:08:28.572Z,40
2016-05-18T08:09:28.450Z,40
2016-05-18T08:10:28.484Z,40
2016-05-18T08:11:28.534Z,40
2016-05-18T08:12:28.426Z,40
2016-05-18T08:13:28.585Z,40
2016-05-18T08:14:28.635Z,40
2016-05-18T08:15:28.684Z,40
2016-05-18T08:16:28.703Z,40
2016-05-18T08:17:29.455Z,40
2016-05-18T08:18:28.864Z,40
2016-05-18T08:19:28.836Z,40
2016-05-18T08:20:32.573Z,40
2016-05-18T08:21:28.889Z,40
2016-05-18T08:22:28.939Z,40
2016-05-18T08:23:28.831Z,40
2016-05-18T08:24:29.131Z,40
2016-05-18T08:25:29.056Z,40
2016-05-18T08:26:29.152Z,40
2016-05-18T08:27:29.133Z,45
2016-05-18T08:28:29.117Z,45
2016-05-18T08:29:29.286Z,45
2016-05-18T08:30:29.222Z,45
2016-05-18T08:31:29.298Z,45
2016-05-18T08:32:29.695Z,45
2016-05-18T08:33:29.557Z,45
2016-05-18T08:34:29.623Z,45
2016-05-18T08:35:29.530Z,45
2016-05-18T08:36:29.737Z,45
2016-05-18T08:37:29.783Z,45
2016-05-18T08:38:29.682Z,45
2016-05-18T08:39:29.862Z,40
2016-05-18T08:40:30.104Z,40
2016-05-18T08:41:29.971Z,40
2016-05-18T08:42:29.995Z,40
2016-05-18T08:43:30.031Z,40
2016-05-18T08:44:30.083Z,40
2016-05-18T08:45:30.104Z,40
2016-05-18T08:46:30.531Z,40
2016-05-18T08:47:30.035Z,40
2016-05-18T08:48:29.929Z,40
2016-05-18T08:49:30.260Z,40
2016-05-18T08:50:30.310Z,45
2016-05-18T08:51:30.346Z,45
2016-05-18T08:52:30.380Z,40
2016-05-18T08:53:30.633Z,40
2016-05-18T08:54:30.464Z,40
2016-05-18T08:55:30.686Z,40
2016-05-18T08:56:30.531Z,45
2016-05-18T08:57:30.566Z,45
2016-05-18T08:58:30.458Z,45
2016-05-18T08:59:30.649Z,45
2016-05-18T09:00:30.527Z,45
2016-05-18T09:01:30.716Z,45
2016-05-18T09:02:30.751Z,45
2016-05-18T09:03:30.785Z,45
2016-05-18T09:04:30.678Z,45
2016-05-18T09:05:30.884Z,45
2016-05-18T09:06:30.918Z,45
2016-05-18T09:07:30.935Z,45
2016-05-18T09:08:31.267Z,45
2016-05-18T09:09:31.020Z,45
2016-05-18T09:10:31.069Z,45
2016-05-18T09:11:31.306Z,45
2016-05-18T09:12:30.981Z,45
2016-05-18T09:13:31.031Z,45
2016-05-18T09:14:31.204Z,50
2016-05-18T09:15:31.239Z,50
2016-05-18T09:16:31.273Z,50
2016-05-18T09:17:31.167Z,50
2016-05-18T09:18:31.356Z,50
2016-05-18T09:19:31.390Z,50
2016-05-18T09:20:31.283Z,50
2016-05-18T09:21:31.473Z,50
2016-05-18T09:22:31.351Z,50
2016-05-18T09:23:31.464Z,50
2016-05-18T09:24:31.591Z,55
2016-05-18T09:25:31.625Z,55
2016-05-18T09:26:31.644Z,55
2016-05-18T09:27:31.677Z,50
2016-05-18T09:28:31.586Z,55
2016-05-18T09:29:31.776Z,55
2016-05-18T09:30:31.810Z,55
2016-05-18T09:31:31.844Z,55
2016-05-18T09:32:31.738Z,55
2016-05-18T09:33:31.927Z,50
2016-05-18T09:34:31.962Z,55
2016-05-18T09:35:31.840Z,55
2016-05-18T09:36:32.029Z,65
2016-05-18T09:37:32.063Z,75
2016-05-18T09:38:31.988Z,80
2016-05-18T09:39:32.147Z,70
2016-05-18T09:40:32.040Z,70
2016-05-18T09:41:32.059Z,70
2016-05-18T09:42:32.248Z,70
2016-05-18T09:43:32.298Z,60
2016-05-18T09:44:32.176Z,60
2016-05-18T09:45:32.382Z,60
2016-05-18T09:46:32.415Z,65
2016-05-18T09:47:32.293Z,70
2016-05-18T09:48:32.328Z,75
2016-05-18T09:49:32.517Z,75
2016-05-18T09:50:32.551Z,65
2016-05-18T09:51:32.289Z,60
2016-05-18T09:52:32.636Z,65
2016-05-18T09:53:33.075Z,70
2016-05-18T09:54:32.703Z,70
2016-05-18T09:55:32.753Z,65
2016-05-18T09:56:32.631Z,65
2016-05-18T09:57:32.664Z,75
2016-05-18T09:58:32.855Z,95
2016-05-18T09:59:32.747Z,100
2016-05-18T10:00:32.782Z,100
2016-05-18T10:01:32.972Z,90
2016-05-18T10:02:33.006Z,80
2016-05-18T10:03:32.899Z,80
2016-05-18T10:04:33.089Z,75
2016-05-18T10:05:33.124Z,70
2016-05-18T10:06:33.204Z,80
2016-05-18T10:07:33.207Z,75
2016-05-18T10:08:33.100Z,70
2016-05-18T10:09:33.274Z,70
2016-05-18T10:10:33.168Z,70
2016-05-18T10:11:33.343Z,65
2016-05-18T10:12:33.392Z,65
2016-05-18T10:13:33.426Z,70
2016-05-18T10:14:33.460Z,70
2016-05-18T10:15:33.509Z,70
2016-05-18T10:16:33.559Z,75
2016-05-18T10:17:33.578Z,70
2016-05-18T10:18:33.612Z,65
2016-05-18T10:19:33.661Z,75
2016-05-18T10:20:33.695Z,90
2016-05-18T10:21:33.729Z,90
2016-05-18T10:22:33.762Z,75
2016-05-18T10:23:33.797Z,70
2016-05-18T10:24:33.925Z,75
2016-05-18T10:25:33.880Z,85
2016-05-18T10:26:33.914Z,80
2016-05-18T10:27:33.792Z,80
2016-05-18T10:28:33.997Z,80
2016-05-18T10:29:34.125Z,85
2016-05-18T10:30:33.925Z,80
2016-05-18T10:31:33.803Z,80
2016-05-18T10:32:34.164Z,80
2016-05-18T10:33:34.042Z,75
2016-05-18T10:34:34.311Z,70
2016-05-18T10:35:34.252Z,80
2016-05-18T10:36:34.332Z,90
2016-05-18T10:37:34.334Z,110
2016-05-18T10:38:34.743Z,115
2016-05-18T10:39:34.402Z,95
2016-05-18T10:40:34.452Z,80
2016-05-18T10:41:34.596Z,75
2016-05-18T10:42:34.598Z,65
2016-05-18T10:43:34.554Z,85
2016-05-18T10:44:34.635Z,90
2016-05-18T10:45:34.637Z,105
2016-05-18T10:46:34.718Z,85
2016-05-18T10:47:34.784Z,85
2016-05-18T10:48:34.818Z,95
2016-05-18T10:49:34.773Z,90
2016-05-18T10:50:34.853Z,105
2016-05-18T10:51:34.857Z,115
2016-05-18T10:52:34.906Z,120
2016-05-18T10:53:35.362Z,110
2016-05-18T10:54:34.990Z,120
2016-05-18T10:55:34.695Z,115
2016-05-18T10:56:35.073Z,120
2016-05-18T10:57:34.936Z,135
2016-05-18T10:58:35.125Z,125
2016-05-18T10:59:35.191Z,110
2016-05-18T11:00:35.194Z,85
2016-05-18T11:01:35.228Z,90
2016-05-18T11:02:35.277Z,120
2016-05-18T11:03:35.327Z,130
2016-05-18T11:04:35.344Z,130
2016-05-18T11:05:35.378Z,130
2016-05-18T11:06:35.256Z,125
2016-05-18T11:07:35.322Z,115
2016-05-18T11:08:35.511Z,105
2016-05-18T11:09:35.529Z,95
2016-05-18T11:10:35.564Z,100
2016-05-18T11:11:35.598Z,105
2016-05-18T11:12:35.632Z,115
2016-05-18T11:13:35.729Z,120
2016-05-18T11:14:35.731Z,115
2016-05-18T11:15:35.592Z,115
2016-05-18T11:16:35.815Z,125
2016-05-18T11:17:35.926Z,130
2016-05-18T11:18:35.867Z,135
2016-05-18T11:19:35.900Z,135
2016-05-18T11:20:35.793Z,145
2016-05-18T11:21:36.046Z,165
2016-05-18T11:22:36.018Z,155
2016-05-18T11:23:36.270Z,115
2016-05-18T11:24:36.086Z,95
2016-05-18T11:25:36.120Z,85
2016-05-18T11:26:35.997Z,90
2016-05-18T11:27:36.204Z,80
2016-05-18T11:28:36.237Z,75
2016-05-18T11:29:36.271Z,75
2016-05-18T11:30:36.305Z,80
2016-05-18T11:31:36.355Z,85
2016-05-18T11:32:36.388Z,90
2016-05-18T11:33:36.422Z,95
2016-05-18T11:34:36.316Z,100
2016-05-18T11:35:36.506Z,105
2016-05-18T11:36:36.368Z,105
2016-05-18T11:37:36.418Z,105
2016-05-18T11:38:36.624Z,115
2016-05-18T11:39:36.501Z,130
2016-05-18T11:40:36.691Z,140
2016-05-18T11:41:36.725Z,155
2016-05-18T11:42:36.760Z,155
2016-05-18T11:43:36.809Z,160
2016-05-18T11:44:36.843Z,160
2016-05-18T11:45:36.876Z,155
2016-05-18T11:46:36.910Z,150
2016-05-18T11:47:36.945Z,145
2016-05-18T11:48:36.993Z,140
2016-05-18T11:49:37.029Z,140
2016-05-18T11:50:37.062Z,140
2016-05-18T11:51:37.095Z,145
2016-05-18T11:52:37.130Z,145
2016-05-18T11:53:36.867Z,150
2016-05-18T11:54:37.214Z,155
2016-05-18T11:55:37.091Z,155
2016-05-18T11:56:37.281Z,150
2016-05-18T11:57:37.331Z,155
2016-05-18T11:58:37.380Z,155
2016-05-18T11:59:37.242Z,165
2016-05-18T12:00:37.292Z,165
2016-05-18T12:01:37.482Z,170
2016-05-18T12:02:37.516Z,165
2016-05-18T12:03:37.550Z,160
2016-05-18T12:04:37.444Z,160
2016-05-18T12:05:37.477Z,155
2016-05-18T12:06:37.667Z,155
2016-05-18T12:07:38.139Z,175
2016-05-18T12:08:37.782Z,165
2016-05-18T12:09:37.785Z,160
2016-05-18T12:10:37.663Z,155
2016-05-18T12:11:37.885Z,145
2016-05-18T12:12:37.902Z,145
2016-05-18T12:13:37.780Z,140
2016-05-18T12:14:37.954Z,135
2016-05-18T12:15:37.863Z,135
2016-05-18T12:16:37.898Z,130
2016-05-18T12:17:38.071Z,125
2016-05-18T12:18:38.107Z,110
2016-05-18T12:19:38.218Z,40
2016-05-18T12:20:38.220Z,40
2016-05-18T12:21:38.068Z,40
2016-05-18T12:22:38.273Z,40
2016-05-18T12:23:38.650Z,35
2016-05-18T12:24:38.701Z,35
2016-05-18T12:25:38.234Z,35
2016-05-18T12:26:38.268Z,35
2016-05-18T12:27:38.473Z,30
2016-05-18T12:28:38.539Z,30
2016-05-18T12:29:38.542Z,30
2016-05-18T12:30:38.575Z,25
2016-05-18T12:31:38.516Z,25
2016-05-18T12:32:38.659Z,20
2016-05-18T12:33:38.693Z,20
2016-05-18T12:34:38.728Z,20
2016-05-18T12:35:38.605Z,20
2016-05-18T12:36:38.810Z,20
2016-05-18T12:37:38.845Z,20
2016-05-18T12:38:39.925Z,15
2016-05-18T12:39:38.927Z,15
2016-05-18T12:40:38.962Z,15
2016-05-18T12:41:38.902Z,15
2016-05-18T12:42:38.874Z,20
2016-05-18T12:43:39.079Z,20
2016-05-18T12:44:39.098Z,20
2016-05-18T12:45:39.147Z,20
2016-05-18T12:46:39.025Z,20
2016-05-18T12:47:39.246Z,20
2016-05-18T12:48:39.264Z,20
2016-05-18T12:49:39.299Z,25
2016-05-18T12:50:39.332Z,25
2016-05-18T12:51:39.382Z,25
2016-05-18T12:52:39.432Z,25
2016-05-18T12:53:39.309Z,25
2016-05-18T12:54:39.484Z,30
2016-05-18T12:55:39.534Z,35
2016-05-18T12:56:39.568Z,35
2016-05-18T12:57:39.601Z,35
2016-05-18T12:58:39.651Z,30
2016-05-18T12:59:39.684Z,30
2016-05-18T13:00:39.703Z,30
2016-05-18T13:01:39.597Z,25
2016-05-18T13:02:39.850Z,25
2016-05-18T13:03:39.820Z,25
2016-05-18T13:04:39.870Z,25
2016-05-18T13:05:39.920Z,20
2016-05-18T13:06:39.970Z,20
2016-05-18T13:07:39.972Z,20
2016-05-18T13:08:39.897Z,20
2016-05-18T13:09:40.103Z,25
2016-05-18T13:10:39.964Z,25
2016-05-18T13:11:40.171Z,25
2016-05-18T13:12:40.173Z,25
2016-05-18T13:13:40.051Z,25
2016-05-18T13:14:39.944Z,25
2016-05-18T13:15:40.119Z,20
2016-05-18T13:16:40.309Z,20
2016-05-18T13:17:40.421Z,20
2016-05-18T13:18:40.471Z,20
2016-05-18T13:19:40.598Z,15
2016-05-18T13:20:40.476Z,15
2016-05-18T13:21:40.510Z,15
2016-05-18T13:22:40.559Z,15
2016-05-18T13:23:41.624Z,15
2016-05-18T13:24:40.470Z,15
2016-05-18T13:25:40.661Z,15
2016-05-18T13:26:40.695Z,15
2016-05-18T13:27:40.839Z,15
2016-05-18T13:28:40.809Z,15
2016-05-18T13:29:40.890Z,15
2016-05-18T13:30:40.689Z,10
2016-05-18T13:31:40.725Z,10
2016-05-18T13:32:40.930Z,10
2016-05-18T13:33:40.964Z,10
2016-05-18T13:34:40.998Z,10
2016-05-18T13:35:41.032Z,10
2016-05-18T13:36:40.925Z,10
2016-05-18T13:37:40.959Z,10
2016-05-18T13:38:41.274Z,10
2016-05-18T13:39:41.183Z,10
2016-05-18T13:40:41.249Z,10
2016-05-18T13:41:41.126Z,10
2016-05-18T13:42:41.144Z,10
2016-05-18T13:43:41.178Z,10
2016-05-18T13:44:41.385Z,10
2016-05-18T13:45:41.433Z,10
2016-05-18T13:46:41.452Z,10
2016-05-18T13:47:41.533Z,10
2016-05-18T13:48:41.566Z,10
2016-05-18T13:49:41.569Z,15
2016-05-18T13:50:41.666Z,15
2016-05-18T13:51:41.840Z,15
2016-05-18T13:52:41.687Z,15
2016-05-18T13:53:41.736Z,15
2016-05-18T13:54:41.755Z,15
2016-05-18T13:55:41.789Z,15
2016-05-18T13:56:41.838Z,20
2016-05-18T13:57:41.700Z,20
2016-05-18T13:58:41.609Z,20
2016-05-18T13:59:41.956Z,25
2016-05-18T14:00:41.990Z,25
2016-05-18T14:01:42.023Z,25
2016-05-18T14:02:42.058Z,25
2016-05-18T14:03:42.092Z,25
2016-05-18T14:04:42.125Z,30
2016-05-18T14:05:42.019Z,35
2016-05-18T14:06:41.897Z,35
2016-05-18T14:07:42.259Z,30
2016-05-18T14:08:42.949Z,30
2016-05-18T14:09:42.326Z,25
2016-05-18T14:10:42.375Z,25
2016-05-18T14:11:42.411Z,25
2016-05-18T14:12:42.272Z,25
2016-05-18T14:13:42.477Z,25
2016-05-18T14:14:42.511Z,20
2016-05-18T14:15:42.546Z,20
2016-05-18T14:16:42.580Z,25
2016-05-18T14:17:42.630Z,25
2016-05-18T14:18:42.694Z,25
2016-05-18T14:19:42.697Z,25
2016-05-18T14:20:42.746Z,25
2016-05-18T14:21:42.624Z,20